This is the latest recevied weather packets stored in our database for station/object W2DRT. If no packets are shown the sender has not sent any weather packets the latest 1 day(s).
| Time | Temp. | Humidity | Pressure | Rain* | Wind** | Luminosity | Snow |
|---|---|---|---|---|---|---|---|
| 1778110435 | 20° C | 68% | 1008.5 hPa | - | - | - | - |
| 1778109834 | 20° C | 68% | 1008.5 hPa | - | - | - | - |
| 1778109228 | 20° C | 68% | 1008.5 hPa | - | - | - | - |
| 1778104416 | 21.67° C | 65% | 1008.2 hPa | - | - | - | - |
| 1778103815 | 22.22° C | 65% | 1008.5 hPa | - | - | - | - |
| 1778100206 | 20° C | 69% | 1007.5 hPa | - | - | - | - |
| 1778095996 | 18.89° C | 71% | 1008.2 hPa | - | - | - | - |
| 1778095394 | 18.89° C | 71% | 1008.2 hPa | - | - | - | - |
| 1778090577 | 18.89° C | 68% | 1008.5 hPa | - | - | - | - |
| 1778089371 | 19.44° C | 66% | 1009.2 hPa | - | - | - | - |
| 1778084552 | 19.44° C | 67% | 1010.2 hPa | - | - | - | - |
| 1778083952 | 19.44° C | 66% | 1010.6 hPa | - | - | - | - |
| 1778066118 | 17.22° C | 71% | 1010.9 hPa | - | - | - | - |
| 1778064911 | 16.67° C | 72% | 1010.6 hPa | - | - | - | - |
| 1778063707 | 16.67° C | 72% | 1010.6 hPa | - | - | - | - |
| 1778063102 | 16.67° C | 72% | 1010.9 hPa | - | - | - | - |
| 1778062501 | 16.67° C | 72% | 1010.9 hPa | - | - | - | - |
| 1778061897 | 16.67° C | 72% | 1010.9 hPa | - | - | - | - |
| 1778061293 | 16.67° C | 72% | 1010.6 hPa | - | - | - | - |
| 1778060693 | 16.67° C | 72% | 1010.6 hPa | - | - | - | - |
| 1778058279 | 16.67° C | 72% | 1010.6 hPa | - | - | - | - |
| 1778057678 | 16.67° C | 72% | 1010.9 hPa | - | - | - | - |
| 1778057077 | 16.67° C | 71% | 1010.9 hPa | - | - | - | - |
| 1778055876 | 17.22° C | 71% | 1010.9 hPa | - | - | - | - |
| 1778054676 | 17.22° C | 71% | 1010.9 hPa | - | - | - | - |
* Rain since midnight (hover to see other rain measurements)
** Current wind speed in m/s (hover to see current wind gust speed)